Pictou, Canada
Current Conditions -  °F | °C
As of 8:00 AM on Thursday 29 Jan 2015 (Local Time) from CYYG Reporting Station
Few Clouds Few Clouds  
Wind Chill:   Ceiling: Unl
Heat Index:   Visibility: 15mi
Dew Point:   Wind: 3mph
Humidity: 92%   Direction: 320°NW
Pressure: 30.17"   Gusts: NA
Location:  45.67°N, 62.7°W
Report Text: CYYG 291200Z 32003KT 15SM FEW025 M14/M15 A3017 RMK SC1 SLP222
Loading
Personal Weather Stations






























Interactive Weather Map New forecast layout! Learn more

10-Day Weather Forecast

Advertisements
Track Severe Weather on mobile